METAR AND TAF INFORMATION
METAR FOR LGKV
ADDS - METARS form results

(1809 UTC 21 July 2019)
Data provider http://aviationweather.gov/metar/data/
 
METAR text: LGKV 211750Z 23004KT CAVOK 26/19 Q1016
Conditions at: LGKV (KAVALA/CHRISOUPO, GR) observed 1750 UTC 21 July 2019
Temperature: 26.0°C (79°F)
Dewpoint: 19.0°C (66°F) [RH = 65%]
Pressure (altimeter): 30.00 inches Hg (1016.0 mb)
Winds: from the SW (230 degrees) at 5 MPH (4 knots; 2.1 m/s)
Visibility: 6 or more miles (10+ km)
Ceiling: ceiling and visibility are OK
Clouds: unknown
Weather: no significant weather observed at this time

METAR text: LGKV 211720Z 22005KT CAVOK 27/19 Q1016
Conditions at: LGKV (KAVALA/CHRISOUPO, GR) observed 1720 UTC 21 July 2019
Temperature: 27.0°C (81°F)
Dewpoint: 19.0°C (66°F) [RH = 62%]
Pressure (altimeter): 30.00 inches Hg (1016.0 mb)
Winds: from the SW (220 degrees) at 6 MPH (5 knots; 2.6 m/s)
Visibility: 6 or more miles (10+ km)
Ceiling: ceiling and visibility are OK
Clouds: unknown
Weather: no significant weather observed at this time

Forecast for: LGKV (KAVALA/CHRISOUPO, GR)
Text: TAF LGKV 211700Z 2118/2218 VRB03KT CAVOK
Forecast period: 1800 UTC 21 July 2019 to 1000 UTC 22 July 2019
Forecast type: FROM: standard forecast or significant change
Winds: variable direction winds at 3 MPH (3 knots; 1.5 m/s)
Visibility: 6 or more miles 10+ km)
Ceiling: unknown
Clouds: missing
Weather: NSW  (no significant weather)
Text: BECMG 2210/2212 21010KT 9999 FEW030 SCT080
Forecast period: 1000 to 1800 UTC 22 July 2019
Forecast type: BECOMING: Conditions expected to become as follows by 1200 UTC 22 July 2019
Winds: from the SSW (210 degrees) at 12 MPH (10 knots; 5.1 m/s)
Visibility: 6 or more miles 10+ km)
Ceiling: at least 12,000 feet AGL
Clouds: few clouds at 3000 feet AGL
scattered clouds at 8000 feet AGL
Weather: NSW  (no significant weather)

 ΧΑΡΤΗΣ ΑΕΡΟΔΡΟΜΙΟΥ

 RUNWAY INFORMATION
Διάδρομος 05R Runway length 9844 ft Runway width 148 ft
Runway elevation 11 ft Runway displaced threshold 0 ft Runway heading 55
Διάδρομος 23L Runway length 9844 ft Runway width 148 ft
Runway elevation 18 ft Runway displaced threshold 0 ft Runway heading 235

 ΣΥΧΝΟΤΗΤΕΣ ΑΕΡΟΔΡΟΜΙΟΥ
Τύπος A/G Όνομα RDO Συχνότητα 563.7 MHZ
Τύπος APP Όνομα KAVALA APP Συχνότητα 122.1 MHZ
Τύπος TWR Όνομα TWR Συχνότητα 118.4 MHZ

 AIRPORT NEAR NAVIGATION AIDS
Τύπος NDB Όνομα Chrisoupolis Συχνότητα 327 KHZ
Τύπος VOR-DME Όνομα Kavala Συχνότητα 108800 KHZ
Τύπος TACAN Όνομα Kavala Συχνότητα 114300 KHZ



Hellenic Air Force Virtual - All rights reserved 2019 - Powered by VAM